»·PEaware :: UAL1928 KSFO-KSLC

UAL1928 :: KSFO-KSLC

FLIGHT INFORMATION

Flight Status: Arrived
Operator:
United Airlines
More flights by this operator :: More flights under this callsign
Pilot: Chris C. (10181)
Aircraft: BOEING 727-100
(B721)
More flights by this aircraft type
Origin: KSFO San Francisco Intl
United States
Destination: KSLC Salt Lake City Intl
United States
More flights between these airports :: More routes between these airports
Route: SFO4 SAC J32 BAM J154 BVL BVL2
File this flight plan on PilotEdge
Remarks: Happy Thursday
Altitude:
(Current/Filed)
29,000ft
Speed:
(Current/Filed)
485kts
Departed: 16-Jan-20 04:07 PM
Arrived: 16-Jan-20 05:24 PM
Distance/Time
Traveled:
518nm/1:17
Distance/Time
To Go:
Arrived

Flight Plot

Page will automatically refresh every two minutes.

Flight plan parsing failed; only flown route is shown


Map Options




Map Legend


Flown Route
Filed Route
Departure Airport
Arrival Airport
Navaid (VOR, NDB)
Fix

Horizontal Profiles

Position Reports

Time Latitude Longitude Heading Altitude Ground
Speed
16-Jan-20 15:24 37.616729 -122.381720 22 36ft 0kts
16-Jan-20 15:25 37.616729 -122.381720 22 36ft 0kts
16-Jan-20 15:26 37.616729 -122.381720 22 36ft 0kts
16-Jan-20 15:27 37.616729 -122.381720 22 36ft 0kts
16-Jan-20 15:29 37.616729 -122.381720 22 36ft 0kts
16-Jan-20 15:30 37.616729 -122.381720 22 36ft 0kts
16-Jan-20 15:31 37.616729 -122.381720 22 35ft 0kts
16-Jan-20 15:32 37.616729 -122.381720 22 35ft 0kts
16-Jan-20 15:33 37.616729 -122.381720 22 35ft 0kts
16-Jan-20 15:34 37.616729 -122.381720 22 35ft 0kts
16-Jan-20 15:35 37.616729 -122.381720 22 35ft 0kts
16-Jan-20 15:36 37.616729 -122.381720 22 35ft 0kts
16-Jan-20 15:37 37.616729 -122.381720 22 35ft 0kts
16-Jan-20 15:38 37.616729 -122.381720 22 35ft 0kts
16-Jan-20 15:39 37.616729 -122.381720 22 35ft 0kts
16-Jan-20 15:40 37.616729 -122.381720 22 35ft 0kts
16-Jan-20 15:41 37.616729 -122.381720 22 35ft 0kts
16-Jan-20 15:42 37.616729 -122.381720 22 35ft 0kts
16-Jan-20 15:43 37.616729 -122.381720 22 35ft 0kts
16-Jan-20 15:44 37.616729 -122.381720 22 35ft 0kts
16-Jan-20 15:45 37.616729 -122.381720 22 35ft 0kts
16-Jan-20 15:46 37.616729 -122.381720 22 35ft 0kts
16-Jan-20 15:46 37.616729 -122.381720 22 35ft 0kts
16-Jan-20 15:48 37.616729 -122.381720 22 35ft 0kts
16-Jan-20 15:49 37.616729 -122.381720 22 35ft 0kts
16-Jan-20 15:49 37.616729 -122.381720 22 35ft 0kts
16-Jan-20 15:51 37.616729 -122.381720 22 35ft 0kts
16-Jan-20 15:51 37.616729 -122.381720 22 35ft 0kts
16-Jan-20 15:52 37.616729 -122.381720 22 35ft 0kts
16-Jan-20 15:54 37.616215 -122.382181 79 36ft 2kts
16-Jan-20 15:54 37.616266 -122.382527 117 36ft 0kts
16-Jan-20 15:55 37.616265 -122.382527 117 36ft 0kts
16-Jan-20 15:56 37.616265 -122.382527 117 36ft 0kts
16-Jan-20 15:57 37.616265 -122.382527 117 36ft 0kts
16-Jan-20 15:58 37.616265 -122.382527 117 36ft 0kts
16-Jan-20 15:59 37.615741 -122.381233 118 35ft 0kts
16-Jan-20 16:00 37.615741 -122.381233 118 35ft 0kts
16-Jan-20 16:01 37.615626 -122.380970 123 35ft 6kts
16-Jan-20 16:02 37.613501 -122.381711 208 35ft 10kts
16-Jan-20 16:03 37.610572 -122.383674 208 36ft 8kts
16-Jan-20 16:04 37.609117 -122.383522 121 35ft 0kts
16-Jan-20 16:05 37.609117 -122.383522 121 35ft 0kts
16-Jan-20 16:06 37.615520 -122.377893 28 31ft 129kts
16-Jan-20 16:07 37.654275 -122.346780 44 1801ft 178kts
16-Jan-20 16:08 37.696478 -122.299138 40 3918ft 216kts
16-Jan-20 16:09 37.746965 -122.248835 29 6405ft 243kts
16-Jan-20 16:10 37.811631 -122.199066 41 8475ft 293kts
16-Jan-20 16:11 37.883784 -122.137992 34 10718ft 329kts
16-Jan-20 16:12 37.962685 -122.071459 48 13056ft 346kts
16-Jan-20 16:13 38.030143 -121.981270 49 15317ft 358kts
16-Jan-20 16:14 38.102434 -121.884817 49 16699ft 395kts
16-Jan-20 16:15 38.175774 -121.779030 49 18708ft 401kts
16-Jan-20 16:16 38.248577 -121.668867 49 20377ft 411kts
16-Jan-20 16:17 38.324962 -121.554693 49 21611ft 432kts
16-Jan-20 16:18 38.404705 -121.437070 49 23107ft 442kts
16-Jan-20 16:19 38.487176 -121.317027 49 24303ft 455kts
16-Jan-20 16:20 38.571215 -121.193648 51 25371ft 465kts
16-Jan-20 16:21 38.653535 -121.062517 52 26374ft 474kts
16-Jan-20 16:22 38.734450 -120.926839 53 27281ft 482kts
16-Jan-20 16:23 38.815806 -120.787967 54 28085ft 490kts
16-Jan-20 16:24 38.898571 -120.646569 54 28815ft 498kts
16-Jan-20 16:25 38.983257 -120.499972 57 28833ft 520kts
16-Jan-20 16:26 39.065853 -120.341238 58 28754ft 542kts
16-Jan-20 16:27 39.151435 -120.177138 58 28746ft 557kts
16-Jan-20 16:28 39.238964 -120.009961 58 28773ft 567kts
16-Jan-20 16:29 39.329226 -119.839586 58 28773ft 577kts
16-Jan-20 16:30 39.421216 -119.666339 58 28772ft 585kts
16-Jan-20 16:31 39.513556 -119.492192 57 28770ft 581kts
16-Jan-20 16:32 39.601620 -119.316830 62 28764ft 574kts
16-Jan-20 16:33 39.684022 -119.139264 62 28761ft 570kts
16-Jan-20 16:34 39.763331 -118.961386 65 28742ft 566kts
16-Jan-20 16:35 39.832493 -118.776969 68 28683ft 563kts
16-Jan-20 16:36 39.898395 -118.591036 68 28689ft 562kts
16-Jan-20 16:37 39.964119 -118.405052 68 28689ft 562kts
16-Jan-20 16:38 40.029045 -118.221882 69 28688ft 561kts
16-Jan-20 16:39 40.095158 -118.035684 68 28690ft 561kts
16-Jan-20 16:40 40.145543 -117.844938 87 28707ft 542kts
16-Jan-20 16:41 40.165227 -117.649655 87 28706ft 542kts
16-Jan-20 16:42 40.189220 -117.454055 86 28702ft 542kts
16-Jan-20 16:43 40.214188 -117.259088 87 28696ft 542kts
16-Jan-20 16:44 40.240068 -117.064123 86 28697ft 541kts
16-Jan-20 16:45 40.266821 -116.868492 86 28699ft 541kts
16-Jan-20 16:46 40.294350 -116.673144 86 28679ft 542kts
16-Jan-20 16:47 40.322366 -116.478214 86 28660ft 543kts
16-Jan-20 16:48 40.351100 -116.281004 86 28660ft 543kts
16-Jan-20 16:49 40.380159 -116.085029 86 28677ft 542kts
16-Jan-20 16:50 40.409206 -115.890045 86 28732ft 541kts
16-Jan-20 16:51 40.438300 -115.695082 86 28725ft 542kts
16-Jan-20 16:52 40.467554 -115.497913 86 28725ft 543kts
16-Jan-20 16:53 40.496742 -115.300993 86 28724ft 544kts
16-Jan-20 16:54 40.525789 -115.104930 86 28772ft 543kts
16-Jan-20 16:55 40.554387 -114.910240 86 28876ft 541kts
16-Jan-20 16:56 40.582792 -114.714349 85 28862ft 543kts
16-Jan-20 16:57 40.610876 -114.517885 85 28863ft 544kts
16-Jan-20 16:58 40.639790 -114.320949 82 28861ft 548kts
16-Jan-20 16:59 40.675606 -114.131885 82 28848ft 539kts
16-Jan-20 17:00 40.709824 -113.953066 85 28460ft 467kts
16-Jan-20 17:01 40.723256 -113.786295 92 26197ft 449kts
16-Jan-20 17:02 40.732668 -113.624872 92 24158ft 434kts
16-Jan-20 17:03 40.724065 -113.471573 105 22089ft 410kts
16-Jan-20 17:04 40.716085 -113.324215 98 19231ft 397kts
16-Jan-20 17:05 40.717044 -113.211265 92 17378ft 393kts
16-Jan-20 17:06 40.729838 -113.073344 88 16973ft 356kts
16-Jan-20 17:07 40.740394 -112.948661 94 16951ft 325kts
16-Jan-20 17:08 40.744432 -112.827960 97 17017ft 336kts
16-Jan-20 17:09 40.743194 -112.702538 98 15840ft 341kts
16-Jan-20 17:10 40.741747 -112.578761 98 14551ft 331kts
16-Jan-20 17:11 40.740522 -112.458309 97 13238ft 322kts
16-Jan-20 17:12 40.739612 -112.341771 98 12053ft 305kts
16-Jan-20 17:13 40.747125 -112.233796 54 11047ft 299kts
16-Jan-20 17:14 40.824279 -112.203242 2 11005ft 296kts
16-Jan-20 17:15 40.908611 -112.194533 4 9405ft 312kts
16-Jan-20 17:16 40.980323 -112.145305 34 8761ft 271kts
16-Jan-20 17:17 40.996293 -112.068527 132 7853ft 227kts
16-Jan-20 17:18 40.951491 -112.021455 162 6855ft 176kts
16-Jan-20 17:19 40.906938 -112.012691 172 5756ft 156kts
16-Jan-20 17:20 40.866930 -112.006641 175 5293ft 144kts
16-Jan-20 17:21 40.830175 -112.001867 175 4751ft 130kts
16-Jan-20 17:22 40.798031 -111.998114 175 4239ft 76kts
16-Jan-20 17:23 40.795140 -111.996232 50 4239ft 0kts
16-Jan-20 17:24 40.793540 -111.994513 174 4239ft 18kts

Navigation Log

Ident Type
Flight plan parsing failed, navigation log unavailable